Time;durP1;ratioP1;P1;durP2;ratioP2;P2;SDS_P1;SDS_P2;PMS_P1;PMS_P2;Temp;Humidity;BMP_temperature;BMP_pressure;BME280_temperature;BME280_humidity;BME280_pressure;Samples;Min_cycle;Max_cycle;Signal;HPM_P1;HPM_P2
2021/12/31 00:01:41;;;;;;;10.82;10.32;;;;;;;-4.50;100.00;101174.00;4973526;28;20480;-75
2021/12/31 00:04:07;;;;;;;11.43;10.82;;;;;;;-4.60;100.00;101172.72;4972990;28;20038;-78
2021/12/31 00:06:33;;;;;;;11.85;11.25;;;;;;;-4.50;100.00;101179.19;4977136;28;20038;-76
2021/12/31 00:08:59;;;;;;;11.23;10.73;;;;;;;-4.30;100.00;101175.78;4978019;28;20485;-70
2021/12/31 00:11:24;;;;;;;11.38;10.77;;;;;;;-4.46;100.00;101173.00;4980457;28;20120;-74
2021/12/31 00:13:50;;;;;;;12.20;11.52;;;;;;;-4.24;100.00;101174.69;4965173;28;20078;-74
2021/12/31 00:16:15;;;;;;;11.60;11.00;;;;;;;-4.12;100.00;101175.91;4968784;28;20026;-71
2021/12/31 00:18:41;;;;;;;10.82;10.32;;;;;;;-4.40;100.00;101171.91;4959922;28;20019;-69
2021/12/31 00:21:06;;;;;;;11.45;10.85;;;;;;;-4.39;100.00;101163.22;4964200;28;20038;-68
2021/12/31 00:23:32;;;;;;;10.90;10.40;;;;;;;-4.22;100.00;101170.28;4964057;28;20035;-73
2021/12/31 00:25:57;;;;;;;11.07;10.50;;;;;;;-4.26;100.00;101172.19;4965476;28;20034;-73
2021/12/31 00:28:23;;;;;;;11.10;10.50;;;;;;;-4.40;100.00;101182.28;4966562;28;20027;-76
2021/12/31 00:30:53;;;;;;;11.65;11.05;;;;;;;-4.28;100.00;101179.16;4967815;28;20027;-78
2021/12/31 00:33:20;;;;;;;11.52;10.90;;;;;;;-4.40;100.00;101182.28;4957704;28;20038;-71
2021/12/31 00:35:46;;;;;;;11.65;11.05;;;;;;;-4.24;100.00;101172.94;4977098;28;20381;-73
2021/12/31 00:38:11;;;;;;;10.93;10.40;;;;;;;-4.42;100.00;101167.69;4975022;28;20031;-74
2021/12/31 00:40:37;;;;;;;12.05;11.38;;;;;;;-4.24;100.00;101159.16;4970716;28;20062;-72
2021/12/31 00:43:06;;;;;;;11.35;10.75;;;;;;;-4.37;100.00;101151.06;4958853;28;20034;-74
2021/12/31 00:45:34;;;;;;;10.82;10.32;;;;;;;-4.26;100.00;101143.69;4960561;28;20093;-74
2021/12/31 00:47:59;;;;;;;10.20;9.70;;;;;;;-4.38;100.00;101140.75;4973334;28;20034;-76
2021/12/31 00:50:25;;;;;;;11.23;10.63;;;;;;;-4.35;100.00;101138.88;4971004;28;20031;-69
2021/12/31 00:52:50;;;;;;;10.82;10.32;;;;;;;-4.39;100.00;101137.34;4972919;28;20051;-70
2021/12/31 00:55:16;;;;;;;11.38;10.77;;;;;;;-4.43;100.00;101146.13;4957351;28;20023;-71
2021/12/31 00:57:42;;;;;;;11.35;10.75;;;;;;;-4.37;100.00;101148.47;4972856;28;20493;-74
2021/12/31 01:00:09;;;;;;;10.70;10.20;;;;;;;-4.33;100.00;101152.63;4971500;28;20409;-68
2021/12/31 01:02:35;;;;;;;10.70;10.20;;;;;;;-4.22;100.00;101145.22;4972446;28;20062;-74
2021/12/31 01:05:03;;;;;;;10.75;10.25;;;;;;;-4.14;100.00;101141.47;4972891;28;20457;-72
2021/12/31 01:07:28;;;;;;;11.18;10.57;;;;;;;-4.18;100.00;101149.38;4971059;28;20027;-76
2021/12/31 01:09:55;;;;;;;10.77;10.23;;;;;;;-4.05;100.00;101148.84;4964777;28;20031;-72
2021/12/31 01:12:21;;;;;;;10.93;10.32;;;;;;;-4.10;100.00;101141.28;4972676;28;20046;-73
2021/12/31 01:17:23;;;;;;;10.45;9.95;;;;;;;-4.04;100.00;101134.97;4964731;28;20035;-68
2021/12/31 01:19:50;;;;;;;10.88;10.38;;;;;;;-3.98;100.00;101132.09;4972691;28;20089;-66
2021/12/31 01:22:28;;;;;;;10.73;10.23;;;;;;;-4.01;100.00;101127.91;4959930;28;20035;-75
2021/12/31 01:24:53;;;;;;;10.40;9.90;;;;;;;-4.19;100.00;101139.94;4964408;28;20050;-70
2021/12/31 01:27:19;;;;;;;11.05;10.48;;;;;;;-4.08;100.00;101128.25;4970073;28;20035;-68
2021/12/31 01:29:45;;;;;;;10.45;9.95;;;;;;;-4.05;100.00;101128.94;4970729;28;20424;-71
2021/12/31 01:32:11;;;;;;;10.90;10.32;;;;;;;-3.99;100.00;101123.50;4968839;28;20034;-74
2021/12/31 01:34:38;;;;;;;11.00;10.40;;;;;;;-4.19;100.00;101119.22;4972484;28;20086;-69
2021/12/31 01:37:04;;;;;;;10.43;9.93;;;;;;;-4.24;100.00;101118.56;4970020;28;20031;-74
2021/12/31 01:39:30;;;;;;;10.82;10.32;;;;;;;-4.08;100.00;101123.06;4970071;28;20488;-70
2021/12/31 01:41:58;;;;;;;11.35;10.75;;;;;;;-4.23;100.00;101121.97;4981944;28;20111;-74
2021/12/31 01:44:28;;;;;;;10.55;10.05;;;;;;;-4.04;100.00;101111.66;4972437;28;20549;-69
2021/12/31 01:46:59;;;;;;;11.02;10.43;;;;;;;-4.08;100.00;101112.69;4967094;28;20077;-71
2021/12/31 01:49:32;;;;;;;11.35;10.75;;;;;;;-4.05;100.00;101104.78;4972017;28;20035;-73
2021/12/31 01:51:58;;;;;;;10.70;10.18;;;;;;;-4.21;100.00;101099.44;4963092;28;20035;-71
2021/12/31 01:54:23;;;;;;;10.55;10.05;;;;;;;-4.22;100.00;101089.97;4971879;28;20053;-74
2021/12/31 01:56:52;;;;;;;11.80;11.20;;;;;;;-4.27;100.00;101094.50;4969138;28;20166;-81
2021/12/31 01:59:18;;;;;;;11.05;10.55;;;;;;;-4.28;100.00;101079.88;4959622;28;20046;-76
2021/12/31 02:01:45;;;;;;;11.27;10.77;;;;;;;-4.27;100.00;101082.41;4969056;28;20065;-71
2021/12/31 02:04:10;;;;;;;11.60;11.00;;;;;;;-4.27;100.00;101072.03;4972119;28;20027;-74
2021/12/31 02:06:36;;;;;;;10.90;10.40;;;;;;;-4.15;100.00;101070.69;4967424;28;20038;-74
2021/12/31 02:09:04;;;;;;;11.23;10.63;;;;;;;-4.24;100.00;101082.28;4971615;28;20027;-74
2021/12/31 02:11:30;;;;;;;11.13;10.60;;;;;;;-4.14;100.00;101097.41;4978717;28;20046;-69
2021/12/31 02:13:56;;;;;;;10.98;10.48;;;;;;;-4.26;100.00;101091.88;4965372;28;20440;-67
2021/12/31 02:16:22;;;;;;;11.25;10.65;;;;;;;-4.24;100.00;101087.47;4968963;28;20106;-68
2021/12/31 02:18:47;;;;;;;11.10;10.55;;;;;;;-4.06;100.00;101092.75;4961777;28;20114;-72
2021/12/31 02:21:13;;;;;;;11.40;10.80;;;;;;;-4.05;100.00;101078.88;4960297;28;20031;-75
2021/12/31 02:23:44;;;;;;;10.93;10.43;;;;;;;-4.03;100.00;101072.72;4969361;28;20473;-73
2021/12/31 02:26:11;;;;;;;10.82;10.32;;;;;;;-4.10;100.00;101073.06;4960750;28;20034;-74
2021/12/31 02:28:37;;;;;;;10.45;9.95;;;;;;;-4.07;100.00;101065.16;4972008;28;20033;-71
2021/12/31 02:31:03;;;;;;;10.93;10.43;;;;;;;-4.22;100.00;101061.50;4971179;28;20122;-75
2021/12/31 02:33:33;;;;;;;10.90;10.40;;;;;;;-4.04;100.00;101057.22;4969002;28;20541;-75
2021/12/31 02:36:04;;;;;;;10.80;10.30;;;;;;;-4.04;100.00;101070.19;4964259;28;20093;-72
2021/12/31 02:38:29;;;;;;;11.43;10.82;;;;;;;-4.15;100.00;101069.84;4971277;28;20064;-72
2021/12/31 02:40:55;;;;;;;11.60;11.00;;;;;;;-4.13;100.00;101068.84;4974009;28;20054;-76
2021/12/31 02:43:20;;;;;;;11.13;10.63;;;;;;;-3.96;100.00;101056.00;4975500;28;20038;-72
2021/12/31 02:45:47;;;;;;;11.05;10.55;;;;;;;-3.94;100.00;101049.00;4971636;28;20027;-75
2021/12/31 02:48:13;;;;;;;10.60;10.10;;;;;;;-4.09;100.00;101064.38;4978194;28;20109;-71
2021/12/31 02:50:42;;;;;;;11.20;10.60;;;;;;;-4.08;100.00;101068.66;4966872;28;20118;-75
2021/12/31 02:53:13;;;;;;;10.75;10.25;;;;;;;-4.09;100.00;101069.56;4975045;28;20124;-77
2021/12/31 02:55:41;;;;;;;10.90;10.40;;;;;;;-4.10;100.00;101065.31;4973790;28;20034;-76
2021/12/31 02:58:07;;;;;;;11.23;10.73;;;;;;;-4.07;100.00;101073.75;4975206;28;20037;-75
2021/12/31 03:00:36;;;;;;;11.43;10.82;;;;;;;-4.03;100.00;101058.94;4968537;28;20051;-71
2021/12/31 03:03:06;;;;;;;11.43;10.82;;;;;;;-3.96;100.00;101055.16;4967208;28;20051;-70
2021/12/31 03:05:33;;;;;;;10.55;10.05;;;;;;;-4.01;100.00;101052.78;4972488;28;20119;-75
2021/12/31 03:08:03;;;;;;;11.40;10.80;;;;;;;-4.08;100.00;101056.53;4974422;28;20025;-74
2021/12/31 03:10:29;;;;;;;11.27;10.68;;;;;;;-4.06;100.00;101048.69;4973955;28;20034;-75
2021/12/31 03:12:56;;;;;;;10.50;10.00;;;;;;;-4.03;100.00;101030.44;4973580;28;20405;-72
2021/12/31 03:15:24;;;;;;;11.40;10.85;;;;;;;-4.03;100.00;101030.44;4972610;28;20045;-67
2021/12/31 03:17:51;;;;;;;11.55;10.95;;;;;;;-4.09;100.00;101041.06;4965322;28;20027;-74
2021/12/31 03:20:26;;;;;;;10.43;9.93;;;;;;;-4.14;100.00;101045.59;4976119;28;20031;-68
2021/12/31 03:22:52;;;;;;;11.13;10.52;;;;;;;-4.14;100.00;101043.84;4974901;28;20026;-68
2021/12/31 03:25:18;;;;;;;11.00;10.50;;;;;;;-4.08;100.00;101046.19;4969837;28;20496;-67
2021/12/31 03:27:44;;;;;;;11.48;10.90;;;;;;;-4.08;100.00;101040.16;4966113;28;20026;-70
2021/12/31 03:30:11;;;;;;;12.30;11.60;;;;;;;-3.97;100.00;101053.47;4967736;28;20126;-71
2021/12/31 03:32:37;;;;;;;11.40;10.80;;;;;;;-4.00;100.00;101038.06;4967911;28;20027;-69
2021/12/31 03:35:04;;;;;;;11.48;10.88;;;;;;;-3.90;100.00;101047.09;4961881;28;20094;-68
2021/12/31 03:37:29;;;;;;;10.07;9.60;;;;;;;-3.85;100.00;101054.66;4966437;28;20038;-72
2021/12/31 03:39:55;;;;;;;12.23;11.52;;;;;;;-3.86;100.00;101035.69;4969717;28;20023;-73
2021/12/31 03:42:21;;;;;;;10.50;10.00;;;;;;;-3.93;100.00;101026.50;4970637;28;20043;-70
2021/12/31 03:44:47;;;;;;;12.98;12.18;;;;;;;-3.94;100.00;101033.44;4972288;28;20080;-70
2021/12/31 03:47:13;;;;;;;11.25;10.65;;;;;;;-3.84;100.00;101027.84;4969993;28;20062;-75
2021/12/31 03:49:38;;;;;;;10.50;10.00;;;;;;;-3.95;100.00;101030.94;4974319;28;20050;-72
2021/12/31 03:52:04;;;;;;;10.63;10.13;;;;;;;-3.99;100.00;101034.56;4976256;28;20030;-71
2021/12/31 03:54:30;;;;;;;10.82;10.30;;;;;;;-3.95;100.00;101039.53;4976627;28;20039;-70
2021/12/31 03:56:55;;;;;;;10.73;10.23;;;;;;;-3.91;100.00;101038.47;4969928;28;20541;-74
2021/12/31 03:59:21;;;;;;;10.95;10.40;;;;;;;-3.93;100.00;101034.28;4964679;28;20073;-75
2021/12/31 04:01:46;;;;;;;11.18;10.57;;;;;;;-3.96;100.00;101043.03;4969410;28;20069;-71
2021/12/31 04:04:12;;;;;;;11.05;10.45;;;;;;;-3.90;100.00;101039.31;4972723;28;20173;-76
2021/12/31 04:06:38;;;;;;;11.90;11.20;;;;;;;-3.97;100.00;101037.91;4967569;28;20089;-72
2021/12/31 04:09:03;;;;;;;10.40;9.90;;;;;;;-3.82;100.00;101041.56;4962777;28;20433;-71
2021/12/31 04:11:29;;;;;;;10.63;10.13;;;;;;;-3.83;100.00;101032.94;4978312;28;20358;-74
2021/12/31 04:13:54;;;;;;;10.60;10.10;;;;;;;-3.78;100.00;101028.38;4967265;28;20420;-69
2021/12/31 04:16:20;;;;;;;11.10;10.55;;;;;;;-3.78;100.00;101043.94;4972696;28;20046;-67
2021/12/31 04:18:45;;;;;;;10.70;10.20;;;;;;;-3.81;100.00;101040.66;4973463;28;20476;-69
2021/12/31 04:21:15;;;;;;;11.20;10.60;;;;;;;-3.66;100.00;101040.78;4959761;28;20030;-73
2021/12/31 04:23:50;;;;;;;10.10;9.60;;;;;;;-3.57;100.00;101023.97;4965686;28;20149;-72
2021/12/31 04:26:16;;;;;;;10.75;10.25;;;;;;;-3.72;100.00;101033.28;4971327;28;20381;-73
2021/12/31 04:28:42;;;;;;;11.00;10.40;;;;;;;-3.60;100.00;101037.06;4971914;28;20025;-71
2021/12/31 04:31:08;;;;;;;10.50;10.00;;;;;;;-3.82;100.00;101026.00;4967801;28;20077;-74
2021/12/31 04:33:33;;;;;;;10.85;10.25;;;;;;;-3.78;100.00;101030.97;4973441;28;20038;-73
2021/12/31 04:35:59;;;;;;;10.40;9.90;;;;;;;-3.71;100.00;101014.22;4973484;28;20035;-73
2021/12/31 04:38:24;;;;;;;10.35;9.85;;;;;;;-3.78;100.00;101017.19;4969844;28;20033;-78
2021/12/31 04:40:50;;;;;;;10.45;9.95;;;;;;;-3.76;100.00;101029.16;4970819;28;20034;-74
2021/12/31 04:43:15;;;;;;;11.05;10.45;;;;;;;-3.69;100.00;101019.34;4971947;28;20069;-75
2021/12/31 04:45:41;;;;;;;10.82;10.32;;;;;;;-3.67;100.00;101015.78;4959391;28;20429;-74
2021/12/31 04:48:06;;;;;;;10.95;10.45;;;;;;;-3.71;100.00;101022.00;4973310;28;20027;-75
2021/12/31 04:50:32;;;;;;;10.55;10.05;;;;;;;-3.56;100.00;101022.19;4961708;28;20380;-75
2021/12/31 04:52:58;;;;;;;10.57;10.07;;;;;;;-3.55;100.00;101010.91;4970253;28;20043;-75
2021/12/31 04:55:23;;;;;;;10.95;10.43;;;;;;;-3.49;100.00;101015.81;4963697;28;20048;-70
2021/12/31 04:57:49;;;;;;;11.38;10.77;;;;;;;-3.47;100.00;101021.75;4973485;28;20038;-68
2021/12/31 05:00:16;;;;;;;12.07;11.40;;;;;;;-3.56;100.00;101027.38;4973745;28;20039;-69
2021/12/31 05:02:42;;;;;;;11.45;10.85;;;;;;;-3.54;100.00;101026.41;4972136;28;20121;-80
2021/12/31 05:05:08;;;;;;;11.27;10.68;;;;;;;-3.49;100.00;101029.63;4973213;28;20154;-74
2021/12/31 05:07:33;;;;;;;11.00;10.50;;;;;;;-3.39;100.00;101032.59;4973045;28;20034;-75
2021/12/31 05:09:59;;;;;;;11.73;11.13;;;;;;;-3.32;100.00;101018.44;4956578;28;20031;-73
2021/12/31 05:12:28;;;;;;;10.60;10.10;;;;;;;-3.29;100.00;101025.25;4964961;28;20544;-67
2021/12/31 05:14:54;;;;;;;10.38;9.88;;;;;;;-3.37;100.00;101018.66;4973127;28;20121;-74
2021/12/31 05:17:20;;;;;;;10.55;10.05;;;;;;;-3.39;100.00;101010.09;4970379;28;20027;-71
2021/12/31 05:19:46;;;;;;;11.60;10.90;;;;;;;-3.33;100.00;101006.38;4971487;28;20073;-70
2021/12/31 05:22:12;;;;;;;12.50;11.70;;;;;;;-3.37;100.00;101002.28;4967924;28;20385;-68
2021/12/31 05:24:38;;;;;;;10.27;9.77;;;;;;;-3.26;100.00;100999.97;4973251;28;20034;-72
2021/12/31 05:27:05;;;;;;;10.77;10.18;;;;;;;-3.35;100.00;100993.50;4971883;28;20496;-75
2021/12/31 05:29:30;;;;;;;10.20;9.70;;;;;;;-3.19;100.00;100984.94;4972222;28;20043;-70
2021/12/31 05:31:56;;;;;;;10.68;10.13;;;;;;;-2.96;100.00;100984.63;4969255;28;20077;-73
2021/12/31 05:34:21;;;;;;;10.10;9.60;;;;;;;-3.25;100.00;100986.09;4972323;28;20066;-72
2021/12/31 05:36:48;;;;;;;10.63;10.05;;;;;;;-3.21;100.00;100991.97;4967855;28;20019;-71
2021/12/31 05:39:14;;;;;;;9.75;9.32;;;;;;;-3.20;100.00;100998.84;4964992;28;20039;-73
2021/12/31 05:41:40;;;;;;;10.13;9.63;;;;;;;-3.21;100.00;100998.00;4972193;28;20208;-71
2021/12/31 05:44:09;;;;;;;11.85;11.23;;;;;;;-3.11;100.00;101003.56;4970736;28;20028;-75
2021/12/31 05:46:35;;;;;;;10.43;9.93;;;;;;;-2.99;100.00;100995.19;4969094;28;20039;-76
2021/12/31 05:49:01;;;;;;;10.15;9.65;;;;;;;-3.06;100.00;101006.78;4973126;28;20039;-71
2021/12/31 05:51:27;;;;;;;11.23;10.63;;;;;;;-3.18;100.00;101003.03;4965988;28;20477;-73
2021/12/31 05:53:53;;;;;;;11.23;10.63;;;;;;;-3.29;100.00;100997.53;4969119;28;20034;-74
2021/12/31 05:56:19;;;;;;;11.02;10.43;;;;;;;-3.04;100.00;100998.94;4974520;28;20030;-74
2021/12/31 05:58:44;;;;;;;11.35;10.73;;;;;;;-3.28;100.00;100996.63;4974713;28;20030;-73
2021/12/31 06:01:10;;;;;;;10.65;10.15;;;;;;;-3.10;100.00;100995.72;4968417;28;20038;-70
2021/12/31 06:03:35;;;;;;;11.27;10.68;;;;;;;-2.97;100.00;101005.50;4972199;28;20135;-71
2021/12/31 06:06:01;;;;;;;12.70;11.90;;;;;;;-3.15;100.00;101002.91;4968477;28;20050;-73
2021/12/31 06:08:26;;;;;;;14.05;13.15;;;;;;;-2.96;100.00;101004.56;4961839;28;20039;-69
2021/12/31 06:10:52;;;;;;;11.30;10.70;;;;;;;-3.00;100.00;101003.91;4956986;28;20023;-70
2021/12/31 06:13:18;;;;;;;10.63;10.02;;;;;;;-2.87;100.00;100999.75;4966247;28;20122;-74
2021/12/31 06:15:46;;;;;;;11.73;11.02;;;;;;;-2.74;100.00;100997.38;4968675;28;20035;-74
2021/12/31 06:18:12;;;;;;;11.73;11.02;;;;;;;-2.57;100.00;101002.56;4969641;28;20034;-77
2021/12/31 06:20:41;;;;;;;10.18;9.68;;;;;;;-2.74;100.00;100999.97;4973686;28;20165;-73
2021/12/31 06:23:06;;;;;;;9.93;9.43;;;;;;;-2.54;100.00;100993.75;4975995;28;20125;-70
2021/12/31 06:25:32;;;;;;;9.98;9.48;;;;;;;-2.25;100.00;100992.25;4977503;28;20058;-76
2021/12/31 06:27:59;;;;;;;10.18;9.68;;;;;;;-2.06;100.00;100999.88;4968564;28;20047;-74
2021/12/31 06:30:25;;;;;;;10.70;10.10;;;;;;;-2.13;100.00;100994.19;4974229;28;20486;-75
2021/12/31 06:32:50;;;;;;;10.02;9.52;;;;;;;-2.09;100.00;100995.69;4963991;28;20015;-80
2021/12/31 06:35:16;;;;;;;9.85;9.35;;;;;;;-2.35;100.00;100991.03;4973512;28;20126;-72
2021/12/31 06:37:41;;;;;;;11.02;10.43;;;;;;;-2.48;100.00;101000.41;4968248;28;20389;-68
2021/12/31 06:40:08;;;;;;;10.57;10.07;;;;;;;-2.21;100.00;100996.34;4975529;28;20047;-68
2021/12/31 06:42:35;;;;;;;10.32;9.75;;;;;;;-2.52;100.00;101000.53;4970094;28;20515;-70
2021/12/31 06:45:01;;;;;;;11.23;10.63;;;;;;;-2.60;100.00;101013.09;4969958;28;20129;-67
2021/12/31 06:47:27;;;;;;;10.50;10.00;;;;;;;-2.78;100.00;101003.66;4971377;28;20054;-68
2021/12/31 06:49:52;;;;;;;11.70;11.05;;;;;;;-2.30;100.00;100989.88;4977020;28;20034;-74
2021/12/31 06:52:17;;;;;;;10.95;10.35;;;;;;;-2.42;100.00;101000.06;4974585;28;20027;-75
2021/12/31 06:54:43;;;;;;;10.70;10.10;;;;;;;-2.31;100.00;101000.34;4967751;28;20031;-70
2021/12/31 06:57:08;;;;;;;10.57;9.98;;;;;;;-2.01;100.00;100993.50;4973849;28;20055;-75
2021/12/31 06:59:34;;;;;;;10.63;10.02;;;;;;;-1.96;100.00;101001.06;4973365;28;20023;-75
2021/12/31 07:02:00;;;;;;;11.32;10.65;;;;;;;-1.81;100.00;100991.59;4965362;28;20030;-76
2021/12/31 07:04:25;;;;;;;10.10;9.60;;;;;;;-2.24;100.00;100999.09;4965073;28;20077;-73
2021/12/31 07:06:51;;;;;;;9.93;9.43;;;;;;;-2.19;100.00;100998.88;4971790;28;20035;-71
2021/12/31 07:09:16;;;;;;;11.70;11.00;;;;;;;-2.22;100.00;101011.09;4971589;28;20019;-73
2021/12/31 07:11:42;;;;;;;9.70;9.20;;;;;;;-1.86;100.00;101010.03;4979463;28;20027;-73
2021/12/31 07:14:07;;;;;;;10.77;10.18;;;;;;;-2.03;100.00;101016.16;4974064;28;20031;-72
2021/12/31 07:16:33;;;;;;;9.57;9.15;;;;;;;-1.70;100.00;101012.63;4964867;28;20062;-69
2021/12/31 07:18:59;;;;;;;9.93;9.43;;;;;;;-1.96;100.00;101008.88;4967307;28;20035;-72
2021/12/31 07:21:24;;;;;;;10.43;9.85;;;;;;;-2.15;100.00;101016.81;4975572;28;20486;-72
2021/12/31 07:23:50;;;;;;;10.60;10.10;;;;;;;-2.12;100.00;101027.06;4978163;28;20105;-70
2021/12/31 07:26:15;;;;;;;11.25;10.55;;;;;;;-2.19;100.00;101025.69;4975594;28;20383;-68
2021/12/31 07:28:40;;;;;;;11.10;10.50;;;;;;;-1.70;100.00;101026.47;4978782;28;20039;-70
2021/12/31 07:31:11;;;;;;;12.23;11.43;;;;;;;-1.51;100.00;101013.31;4969461;28;20038;-70
2021/12/31 07:33:37;;;;;;;11.65;10.95;;;;;;;-1.87;100.00;101005.75;4977078;28;20049;-73
2021/12/31 07:36:03;;;;;;;11.60;10.90;;;;;;;-1.67;100.00;101004.69;4975798;28;20027;-71
2021/12/31 07:38:33;;;;;;;10.80;10.20;;;;;;;-1.05;100.00;101002.88;4963880;28;20059;-74
2021/12/31 07:40:59;;;;;;;10.65;10.05;;;;;;;-0.80;100.00;101010.13;4962090;28;20030;-74
2021/12/31 07:43:25;;;;;;;9.73;9.23;;;;;;;-1.08;100.00;101018.69;4961306;28;20027;-69
2021/12/31 07:45:52;;;;;;;9.68;9.18;;;;;;;-1.18;100.00;101009.72;4965679;28;20023;-72
2021/12/31 07:48:18;;;;;;;9.93;9.43;;;;;;;-0.95;100.00;101022.28;4972870;28;20026;-72
2021/12/31 07:50:43;;;;;;;10.63;10.02;;;;;;;-0.99;100.00;101023.38;4977681;28;20034;-71
2021/12/31 07:53:09;;;;;;;10.10;9.60;;;;;;;-1.45;100.00;101019.94;4969428;28;20101;-73
2021/12/31 07:55:35;;;;;;;10.70;10.10;;;;;;;-0.53;100.00;101019.81;4977853;28;20026;-74
2021/12/31 07:58:01;;;;;;;9.25;8.82;;;;;;;-0.03;100.00;101016.75;4970202;28;20130;-76
2021/12/31 08:00:28;;;;;;;9.45;8.98;;;;;;;-0.03;100.00;101021.97;4962711;28;20028;-70
2021/12/31 08:02:55;;;;;;;9.10;8.70;;;;;;;0.07;100.00;101017.84;4973014;28;20034;-76
2021/12/31 08:05:23;;;;;;;9.38;8.88;;;;;;;-0.30;100.00;101032.31;4969270;28;20084;-75
2021/12/31 08:07:49;;;;;;;10.07;9.50;;;;;;;-0.51;100.00;101038.81;4973120;28;20062;-73
2021/12/31 08:10:14;;;;;;;10.20;9.60;;;;;;;-0.49;100.00;101035.19;4967564;28;20062;-75
2021/12/31 08:12:41;;;;;;;9.70;9.20;;;;;;;-0.39;100.00;101038.91;4966468;28;20465;-77
2021/12/31 08:15:07;;;;;;;9.50;9.00;;;;;;;-0.13;100.00;101046.94;4967325;28;20105;-74
2021/12/31 08:17:32;;;;;;;10.52;9.93;;;;;;;-0.98;100.00;101047.63;4972562;28;20030;-72
2021/12/31 08:19:58;;;;;;;10.38;9.77;;;;;;;-1.22;100.00;101058.53;4967513;28;20034;-73
2021/12/31 08:22:24;;;;;;;10.52;9.93;;;;;;;-0.89;100.00;101047.94;4968627;28;20027;-78
2021/12/31 08:24:50;;;;;;;11.75;11.02;;;;;;;-0.56;100.00;101062.53;4966907;28;20033;-74
2021/12/31 08:27:16;;;;;;;10.85;10.25;;;;;;;-0.73;100.00;101047.91;4978024;28;20019;-76
2021/12/31 08:29:41;;;;;;;9.20;8.75;;;;;;;-0.49;100.00;101050.00;4975786;28;20034;-75
2021/12/31 08:32:07;;;;;;;9.82;9.32;;;;;;;-0.16;100.00;101045.34;4962754;28;20035;-71
2021/12/31 08:34:32;;;;;;;11.13;10.50;;;;;;;0.28;100.00;101044.38;4969535;28;20038;-72
2021/12/31 08:36:58;;;;;;;9.25;8.75;;;;;;;0.47;100.00;101029.25;4972461;28;20022;-72
2021/12/31 08:39:24;;;;;;;10.43;9.82;;;;;;;1.18;100.00;101022.91;4967935;28;20031;-69
2021/12/31 08:41:50;;;;;;;10.13;9.52;;;;;;;1.72;100.00;101017.47;4969859;28;20076;-73
2021/12/31 08:44:16;;;;;;;9.90;9.32;;;;;;;2.19;100.00;101010.69;4967838;28;20039;-74
2021/12/31 08:46:42;;;;;;;8.98;8.57;;;;;;;2.93;100.00;101014.88;4969738;28;20049;-74
2021/12/31 08:49:08;;;;;;;8.27;7.88;;;;;;;4.98;91.46;101012.75;4965837;28;20474;-73
2021/12/31 08:51:34;;;;;;;9.15;8.65;;;;;;;3.99;93.99;101007.66;4969282;28;20042;-72
2021/12/31 08:53:59;;;;;;;9.38;8.88;;;;;;;2.93;100.00;101009.63;4970487;28;20050;-72
2021/12/31 08:56:25;;;;;;;7.85;7.53;;;;;;;3.51;96.98;101017.53;4973013;28;20022;-73
2021/12/31 08:58:51;;;;;;;9.48;8.98;;;;;;;6.74;83.65;101012.56;4972611;28;20469;-73
2021/12/31 09:01:16;;;;;;;8.82;8.38;;;;;;;4.21;94.47;101006.81;4973755;28;20034;-74
2021/12/31 09:03:42;;;;;;;8.98;8.48;;;;;;;3.76;94.02;101008.63;4983982;28;20033;-72
2021/12/31 09:06:08;;;;;;;10.30;9.70;;;;;;;3.71;96.48;101000.25;4974020;28;20073;-71
2021/12/31 09:08:35;;;;;;;10.20;9.60;;;;;;;2.58;100.00;101000.94;4972668;28;20155;-73
2021/12/31 09:11:01;;;;;;;9.07;8.63;;;;;;;2.95;100.00;101009.53;4971579;28;20038;-72
2021/12/31 09:13:31;;;;;;;8.65;8.25;;;;;;;4.05;92.01;101014.22;4974330;28;20030;-72
2021/12/31 09:15:57;;;;;;;8.55;8.15;;;;;;;3.02;97.95;101008.97;4972616;28;20046;-70
2021/12/31 09:18:22;;;;;;;8.40;8.00;;;;;;;2.17;100.00;101016.03;4990033;28;20380;-72
2021/12/31 09:20:49;;;;;;;9.52;9.02;;;;;;;3.08;100.00;101014.69;4973602;28;20392;-74
2021/12/31 09:23:15;;;;;;;9.50;9.00;;;;;;;3.42;100.00;101011.19;4974186;28;20031;-75
2021/12/31 09:25:41;;;;;;;8.93;8.52;;;;;;;2.55;100.00;101011.59;4972875;28;20027;-73
2021/12/31 09:28:06;;;;;;;9.00;8.60;;;;;;;1.56;100.00;101006.41;4974390;28;20046;-71
2021/12/31 09:30:32;;;;;;;10.70;10.10;;;;;;;1.34;100.00;101010.47;4972914;28;20381;-70
2021/12/31 09:32:57;;;;;;;9.77;9.27;;;;;;;1.47;100.00;101017.44;4973714;28;20023;-70
2021/12/31 09:35:23;;;;;;;10.23;9.73;;;;;;;0.90;100.00;101009.97;4971995;28;20027;-70
2021/12/31 09:37:48;;;;;;;9.85;9.35;;;;;;;0.90;100.00;101010.81;4974151;28;20027;-72
2021/12/31 09:40:18;;;;;;;10.10;9.60;;;;;;;1.35;100.00;101013.91;4972016;28;20089;-71
2021/12/31 09:43:09;;;;;;;10.00;9.50;;;;;;;1.55;100.00;101008.19;4972693;28;20097;-74
2021/12/31 09:45:36;;;;;;;9.82;9.32;;;;;;;3.20;100.00;101003.28;4970949;28;20113;-71
2021/12/31 09:48:01;;;;;;;9.80;9.30;;;;;;;1.88;100.00;101001.53;4972560;28;20069;-72
2021/12/31 09:50:27;;;;;;;9.48;8.98;;;;;;;2.13;100.00;100995.41;4966573;28;20066;-73
2021/12/31 09:52:54;;;;;;;9.27;8.77;;;;;;;2.13;100.00;100983.19;4966711;28;20041;-72
2021/12/31 09:55:34;;;;;;;9.80;9.30;;;;;;;2.43;100.00;100979.31;4970381;28;20027;-67
2021/12/31 09:58:00;;;;;;;9.55;9.05;;;;;;;3.52;100.00;100982.47;4967637;28;20042;-72
2021/12/31 10:00:26;;;;;;;9.63;9.13;;;;;;;3.91;97.45;100973.31;4966103;28;20075;-73
2021/12/31 10:03:28;;;;;;;10.13;9.52;;;;;;;3.79;97.63;100963.75;4961580;28;20115;-75
2021/12/31 10:06:05;;;;;;;9.73;9.23;;;;;;;3.93;97.63;100971.38;4961984;28;20039;-76
2021/12/31 10:08:38;;;;;;;9.40;8.90;;;;;;;4.52;94.84;100968.38;4974802;28;20106;-73
2021/12/31 10:11:30;;;;;;;9.47;8.97;;;;;;;4.12;96.04;100974.25;4970469;28;20122;-74
2021/12/31 10:14:02;;;;;;;9.80;9.30;;;;;;;3.46;100.00;100970.69;4963289;28;20520;-71
2021/12/31 10:16:29;;;;;;;10.18;9.60;;;;;;;3.67;98.25;100969.97;4963132;28;20058;-72
2021/12/31 10:19:18;;;;;;;10.98;10.30;;;;;;;3.56;99.85;100976.88;4967554;28;20082;-70
2021/12/31 10:21:46;;;;;;;10.05;9.55;;;;;;;2.48;100.00;100967.53;4960891;28;20046;-69
2021/12/31 10:24:33;;;;;;;9.50;9.00;;;;;;;1.83;100.00;100970.47;4966908;28;20131;-71
2021/12/31 10:27:14;;;;;;;10.65;10.05;;;;;;;2.69;100.00;100962.50;4960936;28;20038;-72
2021/12/31 10:30:00;;;;;;;10.13;9.63;;;;;;;2.84;100.00;100957.09;4965350;28;20043;-71
2021/12/31 10:32:28;;;;;;;11.32;10.68;;;;;;;2.40;100.00;100956.78;4967404;28;22015;-71
2021/12/31 10:35:06;;;;;;;10.15;9.65;;;;;;;1.38;100.00;100966.63;4969608;28;20029;-71
2021/12/31 10:37:44;;;;;;;9.60;9.10;;;;;;;1.06;100.00;100961.81;4962573;28;20043;-70
2021/12/31 10:40:10;;;;;;;9.57;9.07;;;;;;;2.35;100.00;100952.81;4968337;28;20058;-71
2021/12/31 10:42:37;;;;;;;9.70;9.20;;;;;;;1.62;100.00;100948.44;4969801;28;20122;-69
2021/12/31 10:45:04;;;;;;;10.40;9.80;;;;;;;1.74;100.00;100960.66;4968361;28;20042;-70
2021/12/31 10:47:39;;;;;;;9.88;9.38;;;;;;;1.99;100.00;100953.72;4965563;28;20027;-71
2021/12/31 10:50:04;;;;;;;12.48;11.68;;;;;;;2.33;100.00;100952.94;4968781;28;20058;-71
2021/12/31 10:52:37;;;;;;;10.27;9.68;;;;;;;1.44;100.00;100944.47;4984070;28;20043;-70
2021/12/31 10:57:49;;;;;;;10.25;9.65;;;;;;;1.63;100.00;100943.09;4969362;28;20436;-69
2021/12/31 11:00:17;;;;;;;10.43;9.82;;;;;;;1.11;100.00;100945.84;4964129;28;20050;-69
2021/12/31 11:02:43;;;;;;;10.02;9.50;;;;;;;1.50;100.00;100933.59;4967237;28;20038;-80
2021/12/31 11:05:11;;;;;;;9.85;9.35;;;;;;;1.26;100.00;100936.13;4962982;28;20148;-79
2021/12/31 11:07:39;;;;;;;9.52;9.02;;;;;;;1.25;100.00;100940.53;4966510;28;20057;-77
2021/12/31 11:10:06;;;;;;;10.43;9.82;;;;;;;2.00;100.00;100932.66;4966707;28;20026;-78
2021/12/31 11:12:34;;;;;;;9.48;8.98;;;;;;;1.44;100.00;100923.56;4972673;28;20023;-79
2021/12/31 11:15:00;;;;;;;9.02;8.63;;;;;;;2.28;100.00;100926.28;4972515;28;20142;-78